Time;durP1;ratioP1;P1;durP2;ratioP2;P2;SDS_P1;SDS_P2;PMS_P1;PMS_P2;Temp;Humidity;BMP_temperature;BMP_pressure;BME280_temperature;BME280_humidity;BME280_pressure;Samples;Min_cycle;Max_cycle;Signal;HPM_P1;HPM_P2
2022/03/10 00:00:00;;;;;;;18.90;11.48;;;5.30;99.90;;;;;;5094938;28;20097;-62
2022/03/10 00:02:25;;;;;;;15.27;11.13;;;5.20;99.90;;;;;;5094943;28;20037;-62
2022/03/10 00:04:51;;;;;;;15.77;11.43;;;5.20;99.90;;;;;;5094637;28;20108;-62
2022/03/10 00:07:17;;;;;;;16.77;11.32;;;5.20;99.90;;;;;;5094397;28;20040;-62
2022/03/10 00:09:42;;;;;;;14.50;9.98;;;5.20;99.90;;;;;;5093471;28;20032;-62
2022/03/10 00:12:08;;;;;;;16.02;11.35;;;5.10;99.90;;;;;;5094425;28;20036;-61
2022/03/10 00:14:34;;;;;;;16.73;11.05;;;5.10;99.90;;;;;;5094344;28;20085;-62
2022/03/10 00:17:00;;;;;;;15.88;10.85;;;5.10;99.90;;;;;;5094291;28;20093;-61
2022/03/10 00:19:25;;;;;;;17.42;10.93;;;5.10;99.90;;;;;;5094495;28;20043;-61
2022/03/10 00:21:51;;;;;;;14.05;11.02;;;5.00;99.90;;;;;;5094156;28;20039;-62
2022/03/10 00:24:20;;;;;;;16.30;10.85;;;5.00;99.90;;;;;;5094450;28;20101;-61
2022/03/10 00:26:46;;;;;;;17.60;10.77;;;4.90;99.90;;;;;;5094193;28;20047;-62
2022/03/10 00:29:12;;;;;;;17.35;11.25;;;4.90;99.90;;;;;;5094057;28;20106;-62
2022/03/10 00:31:38;;;;;;;16.33;10.80;;;4.90;99.90;;;;;;5093981;28;20075;-61
2022/03/10 00:34:04;;;;;;;15.82;11.10;;;4.90;99.90;;;;;;5094013;28;20047;-62
2022/03/10 00:36:30;;;;;;;19.30;11.75;;;4.90;99.90;;;;;;5094309;28;20039;-62
2022/03/10 00:38:55;;;;;;;17.38;10.85;;;4.90;99.90;;;;;;5094133;28;20040;-62
2022/03/10 00:41:21;;;;;;;19.60;11.57;;;4.90;99.90;;;;;;5093430;28;20039;-62
2022/03/10 00:43:47;;;;;;;19.05;11.02;;;4.90;99.90;;;;;;5093931;28;20075;-61
2022/03/10 00:46:13;;;;;;;17.48;11.02;;;4.90;99.90;;;;;;5093708;28;20043;-61
2022/03/10 00:48:38;;;;;;;17.65;10.93;;;4.80;99.90;;;;;;5094022;28;20036;-61
2022/03/10 00:51:04;;;;;;;17.15;11.05;;;4.80;99.90;;;;;;5094057;28;20035;-61
2022/03/10 00:53:30;;;;;;;16.17;10.30;;;4.80;99.90;;;;;;5093808;28;20036;-61
2022/03/10 00:55:56;;;;;;;18.95;11.60;;;4.70;99.90;;;;;;5093744;28;20104;-62
2022/03/10 00:58:22;;;;;;;17.05;10.82;;;4.80;99.90;;;;;;5093551;28;20064;-61
2022/03/10 01:00:47;;;;;;;16.23;10.63;;;4.70;99.90;;;;;;5093391;28;20043;-62
2022/03/10 01:03:13;;;;;;;22.10;11.50;;;4.60;99.90;;;;;;5093375;28;20043;-62
2022/03/10 01:05:39;;;;;;;17.38;11.25;;;4.70;99.90;;;;;;5093540;28;20040;-61
2022/03/10 01:08:04;;;;;;;19.75;10.95;;;4.60;99.90;;;;;;5093203;28;20478;-61
2022/03/10 01:10:30;;;;;;;17.92;11.32;;;4.60;99.90;;;;;;5093347;28;20036;-61
2022/03/10 01:12:56;;;;;;;16.13;10.93;;;4.50;99.90;;;;;;5091615;28;20048;-61
2022/03/10 01:15:25;;;;;;;20.20;10.95;;;4.50;99.90;;;;;;5093371;28;20036;-61
2022/03/10 01:17:51;;;;;;;16.85;11.00;;;4.50;99.90;;;;;;5093131;28;20460;-61
2022/03/10 01:20:17;;;;;;;15.45;11.10;;;4.40;99.90;;;;;;5093253;28;20066;-62
2022/03/10 01:22:43;;;;;;;21.15;11.50;;;4.40;99.90;;;;;;5093129;28;20078;-61
2022/03/10 01:25:10;;;;;;;18.33;11.57;;;4.30;99.90;;;;;;5093260;28;20117;-61
2022/03/10 01:27:36;;;;;;;16.48;10.93;;;4.40;99.90;;;;;;5093095;28;20040;-61
2022/03/10 01:30:03;;;;;;;18.05;12.15;;;4.40;99.90;;;;;;5092857;28;20055;-61
2022/03/10 01:32:29;;;;;;;16.85;10.70;;;4.30;99.90;;;;;;5093053;28;20036;-61
2022/03/10 01:34:54;;;;;;;19.90;11.88;;;4.20;99.90;;;;;;5093062;28;20090;-61
2022/03/10 01:37:20;;;;;;;17.33;11.27;;;4.20;99.90;;;;;;5093078;28;20028;-61
2022/03/10 01:39:46;;;;;;;18.20;11.55;;;4.10;99.90;;;;;;5091828;28;20123;-61
2022/03/10 01:42:13;;;;;;;18.15;12.20;;;4.20;99.90;;;;;;5092921;28;20032;-61
2022/03/10 01:44:39;;;;;;;16.27;10.85;;;4.10;99.90;;;;;;5092998;28;20389;-61
2022/03/10 01:47:06;;;;;;;18.05;11.55;;;4.10;99.90;;;;;;5093037;28;20043;-60
2022/03/10 01:49:32;;;;;;;16.95;11.63;;;4.10;99.90;;;;;;5093488;28;20946;-60
2022/03/10 01:51:59;;;;;;;16.73;10.88;;;4.00;99.90;;;;;;5093063;28;20043;-60
2022/03/10 01:54:25;;;;;;;19.02;11.93;;;4.00;99.90;;;;;;5091966;28;20075;-61
2022/03/10 01:56:51;;;;;;;18.02;11.32;;;4.00;99.90;;;;;;5092493;28;20071;-61
2022/03/10 01:59:19;;;;;;;16.20;11.20;;;4.00;99.90;;;;;;5092621;28;20085;-61
2022/03/10 02:01:45;;;;;;;20.05;11.65;;;3.90;99.90;;;;;;5092709;28;20123;-61
2022/03/10 02:04:11;;;;;;;17.80;11.18;;;3.90;99.90;;;;;;5092716;28;20036;-61
2022/03/10 02:06:36;;;;;;;16.98;10.75;;;3.90;99.90;;;;;;5092463;28;20043;-61
2022/03/10 02:11:48;;;;;;;24.08;12.18;;;3.90;99.90;;;;;;5092577;28;20073;-61
2022/03/10 02:19:43;;;;;;;20.50;12.90;;;3.80;99.90;;;;;;5090008;28;20478;-61
2022/03/10 02:22:11;;;;;;;16.88;11.45;;;3.60;99.90;;;;;;5091143;28;20142;-61
2022/03/10 02:24:38;;;;;;;19.17;12.27;;;3.70;99.90;;;;;;5092534;28;20081;-61
2022/03/10 02:27:15;;;;;;;20.15;12.43;;;3.50;99.90;;;;;;5092434;28;20040;-61
2022/03/10 02:29:45;;;;;;;17.38;12.20;;;3.60;99.90;;;;;;5092180;28;20063;-61
2022/03/10 02:32:12;;;;;;;20.02;12.10;;;3.50;99.90;;;;;;5092337;28;20044;-61
2022/03/10 02:34:39;;;;;;;18.25;12.73;;;3.50;99.90;;;;;;5090905;28;20040;-61
2022/03/10 02:37:05;;;;;;;16.25;11.32;;;3.40;99.90;;;;;;5091082;28;20044;-61
2022/03/10 02:39:32;;;;;;;18.75;12.38;;;3.30;99.90;;;;;;5091971;28;20093;-61
2022/03/10 02:41:57;;;;;;;24.95;12.18;;;3.30;99.90;;;;;;5092152;28;20047;-61
2022/03/10 02:44:24;;;;;;;18.65;12.13;;;3.30;99.90;;;;;;5092329;28;20036;-62
2022/03/10 02:46:51;;;;;;;19.20;12.88;;;3.30;99.90;;;;;;5091992;28;20047;-61
2022/03/10 02:49:17;;;;;;;20.50;12.85;;;3.20;99.90;;;;;;5091941;28;20146;-61
2022/03/10 02:51:43;;;;;;;20.52;11.80;;;3.30;99.90;;;;;;5091995;28;20040;-61
2022/03/10 02:54:09;;;;;;;22.58;12.13;;;3.20;99.90;;;;;;5092429;28;20047;-61
2022/03/10 02:56:35;;;;;;;19.35;12.68;;;3.20;99.90;;;;;;5080212;28;20041;-61
2022/03/10 02:59:00;;;;;;;15.95;11.75;;;3.20;99.90;;;;;;5071726;28;20482;-61
2022/03/10 03:01:26;;;;;;;18.10;11.68;;;3.20;99.90;;;;;;5071515;28;20040;-61
2022/03/10 03:03:53;;;;;;;24.98;11.73;;;3.10;99.90;;;;;;5071671;28;20482;-61
2022/03/10 03:06:19;;;;;;;19.63;11.85;;;3.20;99.90;;;;;;5075891;28;20045;-61
2022/03/10 03:08:45;;;;;;;17.83;11.45;;;3.20;99.90;;;;;;5074106;28;20495;-61
2022/03/10 03:11:11;;;;;;;17.33;11.95;;;3.20;99.90;;;;;;5075435;28;20044;-61
2022/03/10 03:13:36;;;;;;;19.02;11.75;;;3.20;99.90;;;;;;5075373;28;20033;-61
2022/03/10 03:16:02;;;;;;;19.42;11.90;;;3.20;99.90;;;;;;5075349;28;20041;-61
2022/03/10 03:18:27;;;;;;;18.52;11.95;;;3.20;99.90;;;;;;5075388;28;20036;-61
2022/03/10 03:20:53;;;;;;;18.85;11.68;;;3.20;99.90;;;;;;5091130;28;20123;-61
2022/03/10 03:23:19;;;;;;;15.40;11.27;;;3.30;99.90;;;;;;5075420;28;20044;-61
2022/03/10 03:25:44;;;;;;;20.40;12.13;;;3.30;99.90;;;;;;5075231;28;20454;-62
2022/03/10 03:28:10;;;;;;;25.85;12.40;;;3.30;99.90;;;;;;5074842;28;20047;-61
2022/03/10 03:30:36;;;;;;;21.45;12.43;;;3.30;99.90;;;;;;5074758;28;20080;-61
2022/03/10 03:33:01;;;;;;;17.67;11.85;;;3.30;99.90;;;;;;5074993;28;20406;-61
2022/03/10 03:35:27;;;;;;;17.00;11.85;;;3.30;99.90;;;;;;5074921;28;20041;-61
2022/03/10 03:37:53;;;;;;;18.00;11.95;;;3.30;99.90;;;;;;5073938;28;20096;-62
2022/03/10 03:40:18;;;;;;;15.80;12.30;;;3.30;99.90;;;;;;5075174;28;20040;-62
2022/03/10 03:42:44;;;;;;;20.88;12.05;;;3.30;99.90;;;;;;5075020;28;20474;-62
2022/03/10 03:45:10;;;;;;;21.02;12.32;;;3.30;99.90;;;;;;5075072;28;20055;-62
2022/03/10 03:47:36;;;;;;;18.63;12.05;;;3.30;99.90;;;;;;5074854;28;20087;-62
2022/03/10 03:50:02;;;;;;;20.45;13.20;;;3.30;99.90;;;;;;5074948;28;20036;-62
2022/03/10 03:52:28;;;;;;;19.45;12.00;;;3.30;99.90;;;;;;5074901;28;20032;-62
2022/03/10 03:54:53;;;;;;;18.42;12.30;;;3.20;99.90;;;;;;5074834;28;20048;-63
2022/03/10 03:57:19;;;;;;;19.80;12.20;;;3.20;99.90;;;;;;5074931;28;20036;-62
2022/03/10 03:59:45;;;;;;;19.92;12.02;;;3.10;99.90;;;;;;5074969;28;20040;-61
2022/03/10 04:02:10;;;;;;;19.60;12.50;;;3.10;99.90;;;;;;5074713;28;20818;-63
2022/03/10 04:04:36;;;;;;;20.15;11.60;;;3.00;99.90;;;;;;5074250;28;20051;-62
2022/03/10 04:07:02;;;;;;;20.98;13.20;;;3.00;99.90;;;;;;5074475;28;20040;-62
2022/03/10 04:09:27;;;;;;;16.73;11.73;;;3.00;99.90;;;;;;5074347;28;20036;-62
2022/03/10 04:11:56;;;;;;;23.27;12.27;;;2.90;99.90;;;;;;5074372;28;20492;-62
2022/03/10 04:14:22;;;;;;;20.00;11.93;;;2.90;99.90;;;;;;5074305;28;20045;-62
2022/03/10 04:16:47;;;;;;;18.50;11.95;;;2.80;99.90;;;;;;5073336;28;20040;-62
2022/03/10 04:19:13;;;;;;;18.08;11.25;;;2.70;99.90;;;;;;5074486;28;20036;-62
2022/03/10 04:21:38;;;;;;;18.13;12.15;;;2.80;99.90;;;;;;5074273;28;20376;-60
2022/03/10 04:24:04;;;;;;;20.65;11.75;;;2.80;99.90;;;;;;5073979;28;20517;-60
2022/03/10 04:26:30;;;;;;;21.85;12.43;;;2.70;99.90;;;;;;5074132;28;20037;-60
2022/03/10 04:28:56;;;;;;;18.17;11.50;;;2.70;99.90;;;;;;5073789;28;20053;-60
2022/03/10 04:31:23;;;;;;;21.33;12.02;;;2.70;99.90;;;;;;5074145;28;20124;-60
2022/03/10 04:33:49;;;;;;;19.13;12.25;;;2.70;99.90;;;;;;5074378;28;20047;-60
2022/03/10 04:36:14;;;;;;;17.52;11.65;;;2.70;99.90;;;;;;5073935;28;20362;-59
2022/03/10 04:38:40;;;;;;;16.02;10.98;;;2.70;99.90;;;;;;5073805;28;20033;-60
2022/03/10 04:41:06;;;;;;;21.77;11.27;;;2.70;99.90;;;;;;5073674;28;20045;-60
2022/03/10 04:43:31;;;;;;;15.70;10.50;;;2.70;99.90;;;;;;5072458;28;20123;-60
2022/03/10 04:45:59;;;;;;;22.00;11.82;;;2.70;99.90;;;;;;5073637;28;20086;-59
2022/03/10 04:48:25;;;;;;;17.92;11.90;;;2.70;99.90;;;;;;5073652;28;20036;-60
2022/03/10 04:50:51;;;;;;;15.82;10.93;;;2.70;99.90;;;;;;5073748;28;20364;-61
2022/03/10 04:53:16;;;;;;;15.23;11.13;;;2.80;99.90;;;;;;5073963;28;20033;-60
2022/03/10 04:55:42;;;;;;;17.70;10.45;;;2.80;99.90;;;;;;5072412;28;20044;-61
2022/03/10 04:58:08;;;;;;;15.80;10.30;;;2.80;99.90;;;;;;5073527;28;20036;-61
2022/03/10 05:00:34;;;;;;;14.77;9.95;;;2.80;99.90;;;;;;5072513;28;20437;-61
2022/03/10 05:03:00;;;;;;;16.35;11.55;;;2.90;99.90;;;;;;5073636;28;20421;-60
2022/03/10 05:05:26;;;;;;;15.90;10.48;;;2.90;99.90;;;;;;5073434;28;20394;-61
2022/03/10 05:07:52;;;;;;;19.88;11.02;;;2.90;99.90;;;;;;5073628;28;20051;-61
2022/03/10 05:10:18;;;;;;;21.70;11.43;;;3.00;99.90;;;;;;5073270;28;20044;-61
2022/03/10 05:12:53;;;;;;;18.70;11.13;;;3.00;99.90;;;;;;5073280;28;20072;-60
2022/03/10 05:15:20;;;;;;;18.73;10.77;;;3.10;99.90;;;;;;5073140;28;20120;-60
2022/03/10 05:17:47;;;;;;;16.83;11.00;;;3.10;99.90;;;;;;5073408;28;20115;-60
2022/03/10 05:20:13;;;;;;;17.27;10.82;;;3.20;99.90;;;;;;5073276;28;20422;-60
2022/03/10 05:22:50;;;;;;;14.75;10.27;;;3.10;99.90;;;;;;5073224;28;20036;-61
2022/03/10 05:25:17;;;;;;;15.88;10.30;;;3.20;99.90;;;;;;5072796;28;20047;-61
2022/03/10 05:27:45;;;;;;;18.70;12.52;;;3.20;99.90;;;;;;5072697;28;20036;-61
2022/03/10 05:30:11;;;;;;;18.60;11.90;;;3.20;99.90;;;;;;5072687;28;20053;-61
2022/03/10 05:32:38;;;;;;;15.20;10.27;;;3.20;99.90;;;;;;5072937;28;20037;-61
2022/03/10 05:35:06;;;;;;;18.45;11.00;;;3.20;99.90;;;;;;5072807;28;20428;-60
2022/03/10 05:37:31;;;;;;;17.05;10.57;;;3.20;99.90;;;;;;5072593;28;20457;-61
2022/03/10 05:39:57;;;;;;;18.42;11.18;;;3.20;99.90;;;;;;5072636;28;20041;-61
2022/03/10 05:42:23;;;;;;;23.83;11.07;;;3.20;99.90;;;;;;5072294;28;20033;-60
2022/03/10 05:44:49;;;;;;;17.65;11.15;;;3.10;99.90;;;;;;5072730;28;20039;-61
2022/03/10 05:47:14;;;;;;;17.20;11.48;;;3.10;99.90;;;;;;5072483;28;20486;-60
2022/03/10 05:49:40;;;;;;;16.80;11.23;;;3.10;99.90;;;;;;5072518;28;20079;-61
2022/03/10 05:52:06;;;;;;;19.30;11.30;;;3.10;99.90;;;;;;5072707;28;20041;-60
2022/03/10 05:54:32;;;;;;;16.08;10.88;;;3.10;99.90;;;;;;5072549;28;20048;-61
2022/03/10 05:56:58;;;;;;;19.92;12.20;;;3.10;99.90;;;;;;5072204;28;20129;-61
2022/03/10 05:59:23;;;;;;;19.30;11.18;;;3.10;99.90;;;;;;5070611;28;20080;-60
2022/03/10 06:01:49;;;;;;;16.95;11.43;;;3.10;99.90;;;;;;5072067;28;20041;-60
2022/03/10 06:04:16;;;;;;;19.27;11.43;;;3.10;99.90;;;;;;5072401;28;20042;-61
2022/03/10 06:06:44;;;;;;;15.43;11.02;;;3.10;99.90;;;;;;5072291;28;20041;-60
2022/03/10 06:09:10;;;;;;;18.20;11.95;;;3.10;99.90;;;;;;5072243;28;20075;-60
2022/03/10 06:11:37;;;;;;;18.63;10.98;;;3.00;99.90;;;;;;5072307;28;20036;-61
2022/03/10 06:14:03;;;;;;;15.45;10.45;;;3.10;99.90;;;;;;5072145;28;20115;-60
2022/03/10 06:16:29;;;;;;;19.08;11.52;;;3.10;99.90;;;;;;5072334;28;20115;-61
2022/03/10 06:18:55;;;;;;;20.52;11.60;;;3.20;99.90;;;;;;5072110;28;20406;-61
2022/03/10 06:21:21;;;;;;;18.48;11.32;;;3.10;99.90;;;;;;5081014;28;20211;-60
2022/03/10 06:23:48;;;;;;;18.65;11.80;;;3.10;99.90;;;;;;5092008;28;20483;-61
2022/03/10 06:26:14;;;;;;;19.13;11.93;;;3.20;99.90;;;;;;5092055;28;20114;-60
2022/03/10 06:28:40;;;;;;;17.77;11.55;;;3.20;99.90;;;;;;5091999;28;20447;-61
2022/03/10 06:31:07;;;;;;;16.88;11.48;;;3.20;99.90;;;;;;5086780;28;20032;-61
2022/03/10 06:33:33;;;;;;;19.25;10.88;;;3.20;99.90;;;;;;5092121;28;20036;-60
2022/03/10 06:35:59;;;;;;;16.08;10.50;;;3.20;99.90;;;;;;5092038;28;20032;-61
2022/03/10 06:38:25;;;;;;;16.58;10.75;;;3.30;99.90;;;;;;5091869;28;20123;-61
2022/03/10 06:40:50;;;;;;;20.27;11.73;;;3.40;99.90;;;;;;5090251;28;20032;-61
2022/03/10 06:43:18;;;;;;;19.45;11.50;;;3.40;99.90;;;;;;5092018;28;20047;-60
2022/03/10 06:45:44;;;;;;;18.90;11.50;;;3.50;99.90;;;;;;5074449;28;20051;-61
2022/03/10 06:48:10;;;;;;;17.73;10.57;;;3.60;99.90;;;;;;5070687;28;20372;-60
2022/03/10 06:50:37;;;;;;;18.05;11.68;;;3.60;99.90;;;;;;5071788;28;20048;-61
2022/03/10 06:53:03;;;;;;;20.98;11.85;;;3.60;99.90;;;;;;5072051;28;20497;-60
2022/03/10 06:55:29;;;;;;;18.17;11.50;;;3.60;99.90;;;;;;5071973;28;20044;-60
2022/03/10 06:57:55;;;;;;;18.77;11.73;;;3.70;99.90;;;;;;5071854;28;20046;-60
2022/03/10 07:00:21;;;;;;;17.88;11.77;;;3.80;99.90;;;;;;5071976;28;20593;-60
2022/03/10 07:02:48;;;;;;;22.00;12.50;;;3.90;99.90;;;;;;5071832;28;20811;-60
2022/03/10 07:05:13;;;;;;;18.85;12.10;;;3.90;99.90;;;;;;5071476;28;20534;-60
2022/03/10 07:07:39;;;;;;;16.30;12.00;;;3.90;99.90;;;;;;5071297;28;20059;-60
2022/03/10 07:10:05;;;;;;;19.15;11.18;;;4.00;99.90;;;;;;5071485;28;20044;-61
2022/03/10 07:12:36;;;;;;;16.75;11.13;;;4.00;99.90;;;;;;5071523;28;20035;-60
2022/03/10 07:15:07;;;;;;;17.15;11.20;;;4.20;99.90;;;;;;5071826;28;20156;-60
2022/03/10 07:17:33;;;;;;;18.45;11.05;;;4.20;99.90;;;;;;5071378;28;20040;-60
2022/03/10 07:19:59;;;;;;;19.35;12.13;;;4.20;99.90;;;;;;5071169;28;20040;-61
2022/03/10 07:22:25;;;;;;;15.52;11.30;;;4.30;99.90;;;;;;5071157;28;20113;-60
2022/03/10 07:24:51;;;;;;;17.25;11.45;;;4.40;99.90;;;;;;5070086;28;20052;-60
2022/03/10 07:27:16;;;;;;;20.95;12.00;;;4.50;99.90;;;;;;5071543;28;20800;-60
2022/03/10 07:29:42;;;;;;;21.50;12.63;;;4.80;99.90;;;;;;5070973;28;20045;-61
2022/03/10 07:32:08;;;;;;;21.05;12.73;;;5.00;99.90;;;;;;5071298;28;20041;-60
2022/03/10 07:34:34;;;;;;;18.75;11.30;;;5.20;99.90;;;;;;5070913;28;20048;-61
2022/03/10 07:37:00;;;;;;;17.77;10.73;;;5.40;99.90;;;;;;5071476;28;20040;-60
2022/03/10 07:39:26;;;;;;;17.42;11.85;;;5.60;99.90;;;;;;5071009;28;20046;-61
2022/03/10 07:41:53;;;;;;;23.38;12.32;;;5.90;99.90;;;;;;5071358;28;20037;-61
2022/03/10 07:44:19;;;;;;;16.83;11.43;;;6.10;99.90;;;;;;5071103;28;20032;-60
2022/03/10 07:46:45;;;;;;;15.70;11.02;;;6.20;99.90;;;;;;5071136;28;20394;-60
2022/03/10 07:49:11;;;;;;;20.30;11.63;;;6.40;99.90;;;;;;5070903;28;20501;-60
2022/03/10 07:51:37;;;;;;;15.23;11.15;;;6.70;99.90;;;;;;5072131;28;20033;-60
2022/03/10 07:54:03;;;;;;;17.60;11.93;;;6.90;99.90;;;;;;5074732;28;20032;-60
2022/03/10 07:56:28;;;;;;;15.18;10.80;;;7.10;99.90;;;;;;5073341;28;20360;-60
2022/03/10 07:58:54;;;;;;;18.27;11.93;;;7.20;98.90;;;;;;5074749;28;20037;-61
2022/03/10 08:01:20;;;;;;;26.73;10.88;;;7.40;99.80;;;;;;5074443;28;20090;-60
2022/03/10 08:03:48;;;;;;;19.45;11.48;;;7.70;98.70;;;;;;5074274;28;20044;-60
2022/03/10 08:06:14;;;;;;;16.88;11.65;;;7.90;97.60;;;;;;5074022;28;20427;-60
2022/03/10 08:08:40;;;;;;;18.05;11.73;;;8.00;98.00;;;;;;5074183;28;20120;-61
2022/03/10 08:11:06;;;;;;;17.30;11.73;;;8.10;97.00;;;;;;5074247;28;20071;-60
2022/03/10 08:13:32;;;;;;;17.30;11.70;;;8.10;96.60;;;;;;5074172;28;20044;-61
2022/03/10 08:15:58;;;;;;;16.33;11.80;;;8.30;96.40;;;;;;5074001;28;20094;-60
2022/03/10 08:18:23;;;;;;;17.67;10.95;;;8.60;96.00;;;;;;5074272;28;20040;-61
2022/03/10 08:20:50;;;;;;;15.88;11.60;;;8.90;95.10;;;;;;5072430;28;20056;-61
2022/03/10 08:23:18;;;;;;;16.50;11.85;;;9.10;94.10;;;;;;5074050;28;20147;-61
2022/03/10 08:25:45;;;;;;;18.05;11.63;;;9.10;93.40;;;;;;5074286;28;20055;-60
2022/03/10 08:28:11;;;;;;;17.60;11.95;;;9.20;93.10;;;;;;5089882;28;20036;-61
2022/03/10 08:30:37;;;;;;;17.70;12.30;;;9.20;93.80;;;;;;5073855;28;20055;-60
2022/03/10 08:33:03;;;;;;;19.55;11.70;;;9.60;93.60;;;;;;5086084;28;20036;-60
2022/03/10 08:35:29;;;;;;;18.90;11.45;;;9.90;92.90;;;;;;5094312;28;20032;-61
2022/03/10 08:37:55;;;;;;;16.23;12.20;;;9.80;92.10;;;;;;5093725;28;20039;-61
2022/03/10 08:40:21;;;;;;;18.15;11.63;;;10.20;91.70;;;;;;5075181;28;20486;-62
2022/03/10 08:42:48;;;;;;;17.63;11.98;;;10.20;91.40;;;;;;5084503;28;20032;-61
2022/03/10 08:45:14;;;;;;;15.13;11.63;;;10.50;92.10;;;;;;5093893;28;20043;-62
2022/03/10 08:47:40;;;;;;;15.77;11.77;;;10.40;90.80;;;;;;5093819;28;20085;-62
2022/03/10 08:50:06;;;;;;;14.65;10.95;;;10.90;90.50;;;;;;5093698;28;20115;-62
2022/03/10 08:52:33;;;;;;;16.85;11.73;;;10.80;89.70;;;;;;5093866;28;20044;-62
2022/03/10 08:54:59;;;;;;;22.75;11.65;;;10.80;90.10;;;;;;5093809;28;20036;-61
2022/03/10 08:57:25;;;;;;;18.27;11.77;;;10.70;88.60;;;;;;5093630;28;20040;-61
2022/03/10 08:59:51;;;;;;;17.48;11.40;;;10.80;90.20;;;;;;5093511;28;20039;-61
2022/03/10 09:02:17;;;;;;;16.50;11.30;;;11.10;90.00;;;;;;5093073;28;20474;-61
2022/03/10 09:04:43;;;;;;;17.02;11.05;;;11.50;88.60;;;;;;5093740;28;20032;-61
2022/03/10 09:07:09;;;;;;;15.45;11.23;;;11.70;85.10;;;;;;5093656;28;20036;-61
2022/03/10 09:09:34;;;;;;;19.08;12.48;;;11.80;88.20;;;;;;5093513;28;20439;-60
2022/03/10 09:12:00;;;;;;;17.10;12.15;;;11.90;83.70;;;;;;5092124;28;20544;-60
2022/03/10 09:14:26;;;;;;;19.05;11.77;;;12.10;84.90;;;;;;5093417;28;20063;-60
2022/03/10 09:16:52;;;;;;;19.05;12.48;;;12.40;85.70;;;;;;5093432;28;20040;-59
2022/03/10 09:19:18;;;;;;;16.30;11.65;;;12.80;83.60;;;;;;5093489;28;20054;-60
2022/03/10 09:21:44;;;;;;;17.13;12.25;;;13.00;83.30;;;;;;5093551;28;20122;-60
2022/03/10 09:24:10;;;;;;;16.92;12.57;;;12.90;83.10;;;;;;5093382;28;20040;-60
2022/03/10 09:26:38;;;;;;;14.85;11.88;;;12.60;82.30;;;;;;5092987;28;20039;-60
2022/03/10 09:29:04;;;;;;;14.98;11.45;;;12.60;83.20;;;;;;5082324;28;20056;-60
2022/03/10 09:31:30;;;;;;;16.23;12.18;;;13.10;84.80;;;;;;5075576;28;20041;-60
2022/03/10 09:33:55;;;;;;;20.52;12.50;;;12.90;81.30;;;;;;5092993;28;20089;-59
2022/03/10 09:36:21;;;;;;;16.70;12.90;;;13.10;80.90;;;;;;5092911;28;20047;-59
2022/03/10 09:38:47;;;;;;;15.07;11.60;;;13.00;79.40;;;;;;5093017;28;20040;-62
2022/03/10 09:41:13;;;;;;;16.67;11.07;;;12.90;81.30;;;;;;5092917;28;20040;-61
2022/03/10 09:43:39;;;;;;;17.98;11.77;;;13.20;82.20;;;;;;5092755;28;20425;-60
2022/03/10 09:46:09;;;;;;;15.68;11.90;;;13.00;81.40;;;;;;5092559;28;20040;-59
2022/03/10 09:48:35;;;;;;;14.90;11.68;;;12.90;80.30;;;;;;5092853;28;20031;-62
2022/03/10 09:51:01;;;;;;;17.00;12.52;;;13.00;81.60;;;;;;5088107;28;20041;-62
2022/03/10 09:53:30;;;;;;;13.82;11.10;;;13.10;80.00;;;;;;5092569;28;20401;-62
2022/03/10 09:55:56;;;;;;;19.88;12.13;;;13.00;81.80;;;;;;5092714;28;20047;-61
2022/03/10 09:58:22;;;;;;;20.83;11.18;;;13.00;81.00;;;;;;5092394;28;20039;-60
2022/03/10 10:00:48;;;;;;;16.85;12.05;;;13.40;81.00;;;;;;5092799;28;20040;-60
2022/03/10 10:03:13;;;;;;;15.77;11.27;;;13.30;78.40;;;;;;5092232;28;20089;-62
2022/03/10 10:05:40;;;;;;;15.50;12.77;;;13.50;80.80;;;;;;5092439;28;20043;-61
2022/03/10 10:08:17;;;;;;;17.42;12.25;;;13.40;79.00;;;;;;5092424;28;20070;-59
2022/03/10 10:10:48;;;;;;;15.52;11.90;;;13.40;78.50;;;;;;5092330;28;20040;-59
2022/03/10 10:13:42;;;;;;;16.70;12.68;;;13.50;79.60;;;;;;5092211;28;20040;-61
2022/03/10 10:16:10;;;;;;;14.23;11.05;;;13.70;77.00;;;;;;5092295;28;20485;-61
2022/03/10 10:18:38;;;;;;;15.90;11.35;;;13.50;78.50;;;;;;5092304;28;20524;-61
2022/03/10 10:21:05;;;;;;;19.88;11.80;;;13.70;79.00;;;;;;5092163;28;20109;-61
2022/03/10 10:23:33;;;;;;;15.65;11.50;;;13.70;78.50;;;;;;5092140;28;20133;-62
2022/03/10 10:26:03;;;;;;;16.13;11.48;;;13.90;77.50;;;;;;5091825;28;20478;-59
2022/03/10 10:28:38;;;;;;;19.55;11.13;;;14.20;77.00;;;;;;5090897;28;20039;-60
2022/03/10 10:31:07;;;;;;;16.98;11.65;;;14.40;78.30;;;;;;5092190;28;20104;-60
2022/03/10 10:33:35;;;;;;;17.65;12.35;;;14.40;77.10;;;;;;5090031;28;20490;-58
2022/03/10 10:36:14;;;;;;;19.58;12.00;;;14.50;76.10;;;;;;5091940;28;20048;-58
2022/03/10 10:38:43;;;;;;;17.17;12.10;;;14.70;76.00;;;;;;5090086;28;20576;-58
2022/03/10 10:41:19;;;;;;;18.42;11.45;;;14.80;76.10;;;;;;5091713;28;20090;-57
2022/03/10 10:43:49;;;;;;;17.80;13.15;;;14.60;75.20;;;;;;5091786;28;20040;-58
2022/03/10 10:46:27;;;;;;;13.80;11.88;;;14.60;76.40;;;;;;5091428;28;20047;-57
2022/03/10 10:48:53;;;;;;;21.27;12.23;;;14.60;74.90;;;;;;5091758;28;20640;-57
2022/03/10 10:51:33;;;;;;;18.80;12.25;;;14.60;76.10;;;;;;5092053;28;20067;-60
2022/03/10 10:54:00;;;;;;;38.88;13.77;;;14.80;76.90;;;;;;5091601;28;20544;-57
2022/03/10 10:56:30;;;;;;;19.25;13.02;;;14.80;75.80;;;;;;5091684;28;20364;-58
2022/03/10 10:58:56;;;;;;;14.60;12.18;;;14.80;77.30;;;;;;5091467;28;20048;-58
2022/03/10 11:01:26;;;;;;;15.10;11.73;;;15.00;75.80;;;;;;5091485;28;20075;-60
2022/03/10 11:03:52;;;;;;;18.70;13.15;;;14.90;74.90;;;;;;5089766;28;20530;-57
2022/03/10 11:06:20;;;;;;;18.70;12.95;;;14.90;73.90;;;;;;5091504;28;20040;-57
2022/03/10 11:08:46;;;;;;;16.50;13.30;;;15.20;72.60;;;;;;5091521;28;20044;-58
2022/03/10 11:11:15;;;;;;;19.75;13.60;;;15.00;73.20;;;;;;5091997;28;20075;-59
2022/03/10 11:13:41;;;;;;;18.58;13.80;;;15.10;72.50;;;;;;5091426;28;20061;-59
2022/03/10 11:16:07;;;;;;;20.63;13.57;;;15.00;70.90;;;;;;5091299;28;20486;-59
2022/03/10 11:18:33;;;;;;;17.95;13.43;;;15.20;70.50;;;;;;5091539;28;20044;-59
2022/03/10 11:21:24;;;;;;;20.90;12.90;;;15.50;72.50;;;;;;5091329;28;20448;-59
2022/03/10 11:24:21;;;;;;;17.02;13.23;;;15.70;70.00;;;;;;5091364;28;20042;-60
2022/03/10 11:27:12;;;;;;;19.83;13.00;;;15.90;71.80;;;;;;5012375;28;20073;-60
2022/03/10 11:29:40;;;;;;;17.20;13.38;;;16.10;70.30;;;;;;5012936;28;20054;-62
2022/03/10 11:32:12;;;;;;;16.70;13.05;;;16.00;68.20;;;;;;5012129;28;20496;-60
2022/03/10 11:34:53;;;;;;;16.98;13.30;;;15.90;69.10;;;;;;4996087;28;20116;-60
2022/03/10 11:37:40;;;;;;;19.73;13.80;;;16.10;67.20;;;;;;5012815;28;20053;-60
2022/03/10 11:40:10;;;;;;;18.58;12.85;;;16.00;67.80;;;;;;5012934;28;20125;-60
2022/03/10 11:42:37;;;;;;;21.40;13.57;;;16.30;66.50;;;;;;5012688;28;20049;-59
2022/03/10 11:45:14;;;;;;;17.33;14.05;;;16.30;64.50;;;;;;5012731;28;20042;-60
2022/03/10 11:47:40;;;;;;;16.92;12.82;;;16.40;67.30;;;;;;5012851;28;20045;-60
2022/03/10 11:50:21;;;;;;;19.83;13.45;;;16.40;67.50;;;;;;5012497;28;20037;-60
2022/03/10 11:53:01;;;;;;;20.13;13.38;;;16.60;67.40;;;;;;5012664;28;20069;-60
2022/03/10 11:55:39;;;;;;;;;;;16.50;67.90;;;;;;5012879;28;20052;-61
2022/03/10 11:58:05;;;;;;;20.05;13.88;;;16.60;66.70;;;;;;4996267;28;19921;-61
2022/03/10 12:00:39;;;;;;;20.08;13.13;;;16.80;66.60;;;;;;5012480;28;20052;-61
2022/03/10 12:03:06;;;;;;;19.92;13.70;;;17.00;67.30;;;;;;5072601;28;20124;-62
2022/03/10 12:05:52;;;;;;;18.35;13.32;;;17.00;65.80;;;;;;5094681;28;20039;-61
2022/03/10 12:08:19;;;;;;;17.73;13.23;;;17.10;66.00;;;;;;5093388;28;20036;-61
2022/03/10 12:10:47;;;;;;;19.38;14.40;;;17.40;65.30;;;;;;5094611;28;20031;-62
2022/03/10 12:13:39;;;;;;;18.63;13.87;;;17.20;62.80;;;;;;5094528;28;20040;-61
2022/03/10 12:16:06;;;;;;;19.65;13.98;;;17.10;62.40;;;;;;5094195;28;20048;-62
2022/03/10 12:18:42;;;;;;;25.02;14.55;;;17.60;64.70;;;;;;5094412;28;20067;-61
2022/03/10 12:21:26;;;;;;;21.15;14.32;;;17.40;62.40;;;;;;5092566;28;20043;-62
2022/03/10 12:23:56;;;;;;;23.23;14.90;;;17.40;61.60;;;;;;5091926;28;20093;-59
2022/03/10 12:26:48;;;;;;;20.05;13.75;;;17.60;63.70;;;;;;5094031;28;20048;-60
2022/03/10 12:29:14;;;;;;;18.27;14.05;;;17.60;61.50;;;;;;5090157;28;20048;-59
2022/03/10 12:31:42;;;;;;;17.50;14.40;;;17.70;62.50;;;;;;5094344;28;20043;-59
2022/03/10 12:34:12;;;;;;;20.30;14.60;;;17.50;58.30;;;;;;5091809;28;20101;-58
2022/03/10 12:36:41;;;;;;;22.92;14.55;;;17.20;59.10;;;;;;5093818;28;20096;-60
2022/03/10 12:39:14;;;;;;;17.92;13.80;;;17.20;60.90;;;;;;5092563;28;20047;-58
2022/03/10 12:41:54;;;;;;;19.25;13.45;;;17.00;59.80;;;;;;5093123;28;20036;-58